Time;durP1;ratioP1;P1;durP2;ratioP2;P2;SDS_P1;SDS_P2;PMS_P1;PMS_P2;Temp;Humidity;BMP_temperature;BMP_pressure;BME280_temperature;BME280_humidity;BME280_pressure;Samples;Min_cycle;Max_cycle;Signal;HPM_P1;HPM_P2
2023/05/07 00:00:48;;;;;;;16.13;14.27;;;14.80;99.90;;;;;;5137589;27;20047;-64
2023/05/07 00:03:14;;;;;;;15.38;13.75;;;14.90;99.90;;;;;;5137775;27;20099;-63
2023/05/07 00:05:41;;;;;;;16.75;13.75;;;14.80;99.90;;;;;;5136962;27;20462;-64
2023/05/07 00:08:07;;;;;;;15.40;12.52;;;14.80;99.90;;;;;;5119696;27;20058;-64
2023/05/07 00:10:33;;;;;;;15.93;14.35;;;14.90;99.90;;;;;;5119523;27;20371;-64
2023/05/07 00:13:00;;;;;;;16.23;13.48;;;14.80;99.90;;;;;;5118912;27;20443;-64
2023/05/07 00:15:26;;;;;;;15.55;13.98;;;14.90;99.90;;;;;;5137029;27;20401;-64
2023/05/07 00:17:53;;;;;;;14.25;12.85;;;14.90;99.90;;;;;;5136340;27;20127;-64
2023/05/07 00:20:19;;;;;;;14.10;12.25;;;14.80;99.90;;;;;;5136816;27;20436;-65
2023/05/07 00:22:46;;;;;;;14.32;12.45;;;14.80;99.90;;;;;;5136657;27;20455;-63
2023/05/07 00:25:12;;;;;;;15.02;13.13;;;14.80;99.90;;;;;;5136679;27;20043;-63
2023/05/07 00:27:38;;;;;;;14.98;13.40;;;14.80;99.90;;;;;;5136412;27;20047;-64
2023/05/07 00:30:06;;;;;;;17.20;15.38;;;14.80;99.90;;;;;;5135974;27;20387;-64
2023/05/07 00:32:32;;;;;;;15.27;13.43;;;14.80;99.90;;;;;;5136335;27;20107;-62
2023/05/07 00:34:58;;;;;;;16.77;15.18;;;14.90;99.90;;;;;;5136258;27;20057;-63
2023/05/07 00:37:25;;;;;;;17.42;15.63;;;14.80;99.90;;;;;;5117931;27;20051;-63
2023/05/07 00:39:51;;;;;;;17.02;15.23;;;14.80;99.90;;;;;;5136048;27;20047;-64
2023/05/07 00:42:18;;;;;;;18.02;15.45;;;14.70;99.90;;;;;;5136034;27;20043;-65
2023/05/07 00:44:44;;;;;;;19.25;16.10;;;14.80;99.90;;;;;;5136026;27;20039;-64
2023/05/07 00:47:11;;;;;;;20.80;15.75;;;14.70;99.90;;;;;;5118529;27;20104;-64
2023/05/07 00:49:45;;;;;;;17.48;15.68;;;14.80;99.90;;;;;;5119116;27;20108;-64
2023/05/07 00:52:16;;;;;;;18.17;16.17;;;14.60;99.90;;;;;;5136359;27;20054;-64
2023/05/07 00:54:42;;;;;;;;;;;14.80;99.90;;;;;;5136482;27;20057;-65
2023/05/07 00:57:11;;;;;;;19.33;16.98;;;14.70;99.90;;;;;;5135754;27;20331;-64
2023/05/07 00:59:39;;;;;;;22.85;18.88;;;14.70;99.90;;;;;;5115313;28;20048;-64
2023/05/07 01:02:05;;;;;;;21.08;18.83;;;14.60;99.90;;;;;;5115425;28;20443;-63
2023/05/07 01:04:32;;;;;;;21.30;19.05;;;14.70;99.90;;;;;;5096853;28;20052;-64
2023/05/07 01:07:00;;;;;;;22.10;19.60;;;14.60;99.90;;;;;;5114834;28;20044;-64
2023/05/07 01:09:28;;;;;;;23.23;19.48;;;14.60;99.90;;;;;;5135019;27;20471;-64
2023/05/07 01:11:57;;;;;;;22.00;18.48;;;14.70;99.90;;;;;;5135904;27;20074;-64
2023/05/07 01:14:23;;;;;;;21.08;18.75;;;14.50;99.90;;;;;;5135548;27;20055;-63
2023/05/07 01:16:50;;;;;;;21.23;18.60;;;14.60;99.90;;;;;;5135714;27;20043;-64
2023/05/07 01:19:19;;;;;;;23.60;19.13;;;14.60;99.90;;;;;;5135339;27;20043;-64
2023/05/07 01:21:48;;;;;;;21.63;19.33;;;14.60;99.90;;;;;;5116619;27;20455;-64
2023/05/07 01:24:15;;;;;;;22.33;19.20;;;14.50;99.90;;;;;;5134739;27;20348;-64
2023/05/07 01:26:43;;;;;;;23.13;20.80;;;14.50;99.90;;;;;;5134692;27;20457;-64
2023/05/07 01:29:09;;;;;;;22.00;18.90;;;14.60;99.90;;;;;;5134667;27;20043;-63
2023/05/07 01:31:36;;;;;;;22.10;18.38;;;14.40;99.90;;;;;;5135076;27;20043;-63
2023/05/07 01:34:04;;;;;;;20.63;17.83;;;14.40;99.90;;;;;;5134537;27;20499;-64
2023/05/07 01:36:32;;;;;;;21.80;18.98;;;14.30;99.90;;;;;;5135204;27;20054;-65
2023/05/07 01:38:59;;;;;;;21.25;18.23;;;14.30;99.90;;;;;;5135186;27;20039;-65
2023/05/07 01:41:26;;;;;;;24.42;18.92;;;14.30;99.90;;;;;;5134445;27;20051;-63
2023/05/07 01:43:53;;;;;;;21.38;17.58;;;14.50;99.90;;;;;;5116754;27;20067;-64
2023/05/07 01:46:20;;;;;;;23.10;18.75;;;14.30;99.90;;;;;;5134818;27;20433;-64
2023/05/07 01:48:46;;;;;;;20.92;17.10;;;14.30;99.90;;;;;;5134703;27;20104;-64
2023/05/07 01:51:12;;;;;;;21.00;18.73;;;14.40;99.90;;;;;;5134993;27;20075;-64
2023/05/07 01:53:40;;;;;;;21.50;17.73;;;14.30;99.90;;;;;;5134525;27;20062;-63
2023/05/07 01:56:07;;;;;;;21.48;17.08;;;14.30;99.90;;;;;;5134719;27;20129;-63
2023/05/07 01:58:33;;;;;;;20.13;17.08;;;14.20;99.90;;;;;;5134539;27;20051;-64
2023/05/07 02:01:00;;;;;;;23.75;18.20;;;14.30;99.90;;;;;;5134611;27;20062;-63
2023/05/07 02:03:26;;;;;;;20.55;17.00;;;14.30;99.90;;;;;;5134354;27;20043;-64
2023/05/07 02:05:52;;;;;;;20.50;16.15;;;14.30;99.90;;;;;;5134305;27;20100;-64
2023/05/07 02:08:18;;;;;;;21.52;16.98;;;14.20;99.90;;;;;;5134222;27;20417;-63
2023/05/07 02:10:45;;;;;;;19.15;15.82;;;14.20;99.90;;;;;;5134585;27;20124;-63
2023/05/07 02:13:11;;;;;;;20.48;15.20;;;14.20;99.90;;;;;;5134025;27;20062;-63
2023/05/07 02:15:37;;;;;;;19.83;14.82;;;14.10;99.90;;;;;;5134479;27;20050;-64
2023/05/07 02:18:07;;;;;;;17.10;14.63;;;14.10;99.90;;;;;;5134442;27;20054;-63
2023/05/07 02:20:34;;;;;;;18.42;14.68;;;14.10;99.90;;;;;;5134108;28;20116;-64
2023/05/07 02:23:00;;;;;;;18.15;13.70;;;14.10;99.90;;;;;;5133546;28;20047;-64
2023/05/07 02:25:26;;;;;;;19.48;14.88;;;14.00;99.90;;;;;;5134117;28;20066;-64
2023/05/07 02:27:52;;;;;;;20.05;14.90;;;14.00;99.90;;;;;;5112198;28;20470;-64
2023/05/07 02:30:21;;;;;;;21.50;16.27;;;14.00;99.90;;;;;;5108583;28;20051;-65
2023/05/07 02:32:47;;;;;;;18.95;15.23;;;13.90;99.90;;;;;;5112223;28;20043;-64
2023/05/07 02:35:13;;;;;;;19.25;15.02;;;14.00;99.90;;;;;;5107321;28;20039;-64
2023/05/07 02:37:39;;;;;;;20.58;16.45;;;13.80;99.90;;;;;;5113216;28;20060;-64
2023/05/07 02:40:06;;;;;;;17.67;14.40;;;13.80;99.90;;;;;;5107405;28;20085;-64
2023/05/07 02:42:32;;;;;;;19.02;15.20;;;13.80;99.90;;;;;;5095846;28;20120;-64
2023/05/07 02:44:59;;;;;;;18.23;14.80;;;13.80;99.90;;;;;;5111448;28;20040;-63
2023/05/07 02:47:28;;;;;;;19.58;14.63;;;13.80;99.90;;;;;;5103763;28;20036;-63
2023/05/07 02:49:55;;;;;;;18.88;15.65;;;13.80;99.90;;;;;;5079193;28;20048;-63
2023/05/07 02:52:21;;;;;;;18.13;14.85;;;13.60;99.90;;;;;;5111012;28;20044;-64
2023/05/07 02:54:48;;;;;;;20.02;17.55;;;13.70;99.90;;;;;;5096663;28;20475;-64
2023/05/07 02:57:14;;;;;;;19.15;16.23;;;13.60;99.90;;;;;;5126089;27;20039;-64
2023/05/07 02:59:41;;;;;;;19.75;16.10;;;13.60;99.90;;;;;;5116679;28;20055;-64
2023/05/07 03:02:08;;;;;;;21.77;16.48;;;13.50;99.90;;;;;;5116357;28;20357;-64
2023/05/07 03:04:34;;;;;;;19.67;15.63;;;13.40;99.90;;;;;;5098330;28;20047;-64
2023/05/07 03:07:00;;;;;;;20.92;17.27;;;13.40;99.90;;;;;;5116862;28;20044;-65
2023/05/07 03:09:26;;;;;;;19.27;16.27;;;13.40;99.90;;;;;;5116438;28;20044;-64
2023/05/07 03:11:53;;;;;;;22.67;16.52;;;13.30;99.90;;;;;;5116817;28;20483;-63
2023/05/07 03:14:19;;;;;;;21.20;17.15;;;13.40;99.90;;;;;;5116324;28;20052;-65
2023/05/07 03:16:45;;;;;;;20.88;16.58;;;13.30;99.90;;;;;;5116610;28;20051;-63
2023/05/07 03:19:11;;;;;;;21.02;16.83;;;13.30;99.90;;;;;;5116345;28;20044;-64
2023/05/07 03:21:38;;;;;;;20.38;16.48;;;13.30;99.90;;;;;;5116605;28;20138;-63
2023/05/07 03:24:04;;;;;;;22.10;16.98;;;13.20;99.90;;;;;;5116274;28;20052;-63
2023/05/07 03:26:30;;;;;;;20.50;17.33;;;13.20;99.90;;;;;;5115988;28;20467;-64
2023/05/07 03:28:57;;;;;;;24.23;17.90;;;13.10;99.90;;;;;;5115904;28;20421;-64
2023/05/07 03:31:23;;;;;;;22.05;18.08;;;13.10;99.90;;;;;;5098390;28;20059;-63
2023/05/07 03:33:54;;;;;;;22.85;16.50;;;13.00;99.90;;;;;;5115723;28;20056;-63
2023/05/07 03:36:21;;;;;;;20.83;17.25;;;13.10;99.90;;;;;;5116215;28;20055;-63
2023/05/07 03:38:48;;;;;;;21.05;16.83;;;13.10;99.90;;;;;;5097998;28;20054;-63
2023/05/07 03:41:14;;;;;;;21.65;16.90;;;13.00;99.90;;;;;;5115857;28;20058;-63
2023/05/07 03:43:40;;;;;;;22.73;16.65;;;13.00;99.90;;;;;;5115744;28;20048;-63
2023/05/07 03:46:07;;;;;;;21.38;17.45;;;12.90;99.90;;;;;;5116246;28;20047;-63
2023/05/07 03:48:33;;;;;;;21.35;17.00;;;13.00;99.90;;;;;;5115658;28;20101;-63
2023/05/07 03:50:59;;;;;;;23.27;17.30;;;12.80;99.90;;;;;;5115704;28;20455;-63
2023/05/07 03:53:25;;;;;;;25.05;18.17;;;12.90;99.90;;;;;;5097203;28;20059;-63
2023/05/07 03:55:52;;;;;;;25.33;18.10;;;12.90;99.90;;;;;;5115724;28;20051;-63
2023/05/07 03:58:18;;;;;;;24.42;20.48;;;12.80;99.90;;;;;;5115388;28;20449;-63
2023/05/07 04:00:45;;;;;;;25.45;18.50;;;12.70;99.90;;;;;;5097524;28;20059;-64
2023/05/07 04:03:11;;;;;;;23.13;19.15;;;12.70;99.90;;;;;;5115170;28;20054;-64
2023/05/07 04:05:37;;;;;;;25.00;18.50;;;12.80;99.90;;;;;;5115269;28;20467;-64
2023/05/07 04:08:05;;;;;;;23.58;19.20;;;12.70;99.90;;;;;;5097453;28;20089;-63
2023/05/07 04:10:31;;;;;;;27.52;19.58;;;12.70;99.90;;;;;;5115345;28;20115;-64
2023/05/07 04:12:57;;;;;;;26.65;20.05;;;12.60;99.90;;;;;;5097273;28;20112;-64
2023/05/07 04:15:24;;;;;;;22.80;17.75;;;12.60;99.90;;;;;;5115224;28;20047;-63
2023/05/07 04:17:50;;;;;;;23.67;17.55;;;12.60;99.90;;;;;;5114808;28;20515;-63
2023/05/07 04:20:17;;;;;;;24.08;19.73;;;12.60;99.90;;;;;;5115232;28;20043;-63
2023/05/07 04:22:43;;;;;;;24.98;18.95;;;12.50;99.90;;;;;;5096558;28;20051;-64
2023/05/07 04:25:10;;;;;;;27.88;21.10;;;12.50;99.90;;;;;;5115052;28;20062;-63
2023/05/07 04:27:37;;;;;;;25.73;18.80;;;12.60;99.90;;;;;;5114575;28;20051;-64
2023/05/07 04:30:04;;;;;;;26.55;21.40;;;12.50;99.90;;;;;;5114591;28;20356;-63
2023/05/07 04:32:30;;;;;;;27.35;19.52;;;12.50;99.90;;;;;;5096909;28;20472;-64
2023/05/07 04:34:56;;;;;;;26.05;21.23;;;12.50;99.90;;;;;;5114996;28;20417;-63
2023/05/07 04:37:23;;;;;;;27.23;19.80;;;12.40;99.90;;;;;;5114672;28;20051;-64
2023/05/07 04:39:49;;;;;;;29.35;22.05;;;12.50;99.90;;;;;;5094371;28;20060;-64
2023/05/07 04:42:17;;;;;;;28.52;20.85;;;12.40;99.90;;;;;;5075799;28;20464;-64
2023/05/07 04:44:45;;;;;;;29.17;20.98;;;12.40;99.90;;;;;;5094384;28;20048;-64
2023/05/07 04:47:11;;;;;;;27.83;20.05;;;12.50;99.90;;;;;;5094314;28;20044;-64
2023/05/07 04:49:38;;;;;;;29.13;20.92;;;12.50;99.90;;;;;;5113619;28;20109;-63
2023/05/07 04:52:05;;;;;;;28.02;21.08;;;12.40;99.90;;;;;;5114634;28;20088;-63
2023/05/07 04:54:31;;;;;;;28.50;20.17;;;12.40;99.90;;;;;;5114108;28;20132;-64
2023/05/07 04:56:57;;;;;;;30.63;24.08;;;12.40;99.90;;;;;;5096497;28;20112;-64
2023/05/07 04:59:24;;;;;;;29.08;22.55;;;12.40;99.90;;;;;;5114227;28;20360;-63
2023/05/07 05:01:50;;;;;;;29.38;22.60;;;12.30;99.90;;;;;;5114069;28;20048;-64
2023/05/07 05:04:16;;;;;;;30.38;22.45;;;12.40;99.90;;;;;;5113933;28;20092;-63
2023/05/07 05:06:43;;;;;;;27.90;21.25;;;12.40;99.90;;;;;;5114179;28;20047;-63
2023/05/07 05:09:09;;;;;;;30.92;21.48;;;12.40;99.90;;;;;;5113946;28;20040;-63
2023/05/07 05:11:35;;;;;;;29.80;22.25;;;12.40;99.90;;;;;;5114299;28;20059;-63
2023/05/07 05:14:02;;;;;;;33.10;23.83;;;12.50;99.90;;;;;;5095927;28;20554;-64
2023/05/07 05:16:28;;;;;;;31.25;23.00;;;12.40;99.90;;;;;;5095827;28;20070;-64
2023/05/07 05:18:54;;;;;;;32.15;22.38;;;12.50;99.90;;;;;;5095843;28;20047;-64
2023/05/07 05:21:21;;;;;;;33.05;22.75;;;12.40;99.90;;;;;;5095655;28;20048;-65
2023/05/07 05:23:47;;;;;;;34.53;24.75;;;12.40;99.90;;;;;;5078816;28;20048;-63
2023/05/07 05:26:13;;;;;;;30.55;22.98;;;12.50;99.90;;;;;;5113696;28;20341;-64
2023/05/07 05:28:40;;;;;;;32.85;24.30;;;12.50;99.90;;;;;;5095770;28;20058;-64
2023/05/07 05:31:06;;;;;;;33.05;25.67;;;12.50;99.90;;;;;;5113893;28;20060;-63
2023/05/07 05:33:32;;;;;;;32.47;25.67;;;12.50;99.90;;;;;;5113385;28;20047;-63
2023/05/07 05:35:58;;;;;;;33.55;23.45;;;12.50;99.90;;;;;;5095791;28;20055;-63
2023/05/07 05:38:25;;;;;;;29.52;22.45;;;12.50;99.90;;;;;;5113435;28;20051;-64
2023/05/07 05:40:51;;;;;;;33.95;24.70;;;12.60;99.90;;;;;;5113641;28;20058;-64
2023/05/07 05:43:18;;;;;;;32.50;24.35;;;12.50;99.90;;;;;;5095576;28;20391;-63
2023/05/07 05:45:44;;;;;;;32.35;23.23;;;12.70;99.90;;;;;;5113596;28;20156;-63
2023/05/07 05:48:11;;;;;;;31.88;22.80;;;12.60;99.90;;;;;;5095239;28;20317;-65
2023/05/07 05:50:37;;;;;;;31.52;23.88;;;12.70;99.90;;;;;;5113609;28;20112;-63
2023/05/07 05:53:03;;;;;;;35.50;22.80;;;12.70;99.90;;;;;;5095182;28;20047;-64
2023/05/07 05:55:32;;;;;;;33.95;23.90;;;12.80;99.90;;;;;;5113742;28;20047;-63
2023/05/07 05:58:00;;;;;;;34.35;24.52;;;12.80;99.90;;;;;;5113288;28;20075;-64
2023/05/07 06:00:27;;;;;;;33.38;24.17;;;12.80;99.90;;;;;;5113593;28;20044;-63
2023/05/07 06:02:53;;;;;;;32.35;25.45;;;12.70;99.90;;;;;;5112982;28;20363;-63
2023/05/07 06:05:19;;;;;;;32.78;22.73;;;12.80;99.90;;;;;;5113125;28;20070;-63
2023/05/07 06:07:46;;;;;;;31.80;24.83;;;12.80;99.90;;;;;;5113116;28;20131;-63
2023/05/07 06:10:12;;;;;;;31.13;22.33;;;12.70;99.90;;;;;;5113230;28;20044;-62
2023/05/07 06:12:39;;;;;;;37.10;25.15;;;12.70;99.90;;;;;;5094719;28;20055;-62
2023/05/07 06:15:06;;;;;;;32.60;24.77;;;12.70;99.90;;;;;;5112886;28;20429;-63
2023/05/07 06:17:32;;;;;;;33.58;23.70;;;12.80;99.90;;;;;;5112783;28;20126;-63
2023/05/07 06:19:58;;;;;;;30.60;22.05;;;12.70;99.90;;;;;;5113183;28;20051;-62
2023/05/07 06:22:25;;;;;;;33.13;23.15;;;12.80;99.90;;;;;;5112468;28;20058;-64
2023/05/07 06:24:51;;;;;;;34.30;22.90;;;12.80;99.90;;;;;;5095246;28;20055;-63
2023/05/07 06:27:17;;;;;;;32.80;23.65;;;12.90;99.90;;;;;;5112527;28;20054;-63
2023/05/07 06:29:44;;;;;;;31.85;23.80;;;12.80;99.90;;;;;;5098752;28;20051;-63
2023/05/07 06:32:12;;;;;;;29.80;22.25;;;13.00;99.90;;;;;;5117141;28;20100;-63
2023/05/07 06:34:39;;;;;;;28.48;21.42;;;13.10;99.90;;;;;;5117200;28;20051;-63
2023/05/07 06:37:06;;;;;;;31.08;22.38;;;13.20;99.90;;;;;;5099180;28;20251;-63
2023/05/07 06:39:33;;;;;;;28.52;22.90;;;13.60;99.90;;;;;;5116537;28;20415;-64
2023/05/07 06:42:01;;;;;;;29.70;21.90;;;14.00;99.90;;;;;;5098325;28;20059;-63
2023/05/07 06:44:27;;;;;;;29.30;22.13;;;14.10;99.90;;;;;;5116709;28;20035;-63
2023/05/07 06:46:54;;;;;;;28.20;21.15;;;14.00;99.90;;;;;;5098293;28;20372;-64
2023/05/07 06:49:20;;;;;;;28.38;21.70;;;14.10;99.90;;;;;;5115673;28;20495;-63
2023/05/07 06:51:46;;;;;;;28.20;20.77;;;14.30;99.90;;;;;;5116505;28;20051;-63
2023/05/07 06:54:12;;;;;;;27.65;22.48;;;14.40;99.90;;;;;;5098228;28;20463;-63
2023/05/07 06:56:39;;;;;;;28.23;22.40;;;14.40;99.90;;;;;;5117022;27;20086;-63
2023/05/07 06:59:06;;;;;;;26.63;21.17;;;14.70;99.90;;;;;;5105118;27;20054;-64
2023/05/07 07:01:32;;;;;;;29.20;22.85;;;14.70;99.90;;;;;;5126055;27;20050;-63
2023/05/07 07:03:59;;;;;;;27.75;22.00;;;14.80;99.90;;;;;;5124671;27;20044;-64
2023/05/07 07:06:25;;;;;;;26.58;21.05;;;15.00;99.90;;;;;;5126259;27;20051;-65
2023/05/07 07:08:51;;;;;;;27.15;21.02;;;15.30;99.90;;;;;;5116871;27;20047;-65
2023/05/07 07:11:17;;;;;;;26.77;21.05;;;15.60;99.90;;;;;;5115855;28;20059;-63
2023/05/07 07:13:44;;;;;;;26.52;21.33;;;15.70;99.90;;;;;;5097562;28;20043;-64
2023/05/07 07:16:10;;;;;;;26.20;20.77;;;15.70;99.90;;;;;;5115851;28;20113;-64
2023/05/07 07:18:36;;;;;;;24.80;21.00;;;15.80;99.90;;;;;;5115350;28;20109;-64
2023/05/07 07:21:03;;;;;;;26.25;21.50;;;15.70;99.90;;;;;;5110409;28;20043;-65
2023/05/07 07:23:29;;;;;;;28.08;21.08;;;15.60;99.90;;;;;;5097834;28;20044;-63
2023/05/07 07:25:56;;;;;;;26.48;20.65;;;15.80;99.90;;;;;;5098331;28;20520;-63
2023/05/07 07:28:22;;;;;;;26.77;20.92;;;15.90;99.90;;;;;;5114572;28;20344;-63
2023/05/07 07:30:48;;;;;;;26.60;20.52;;;15.90;99.90;;;;;;5115774;28;20044;-64
2023/05/07 07:33:15;;;;;;;29.73;22.00;;;15.70;99.90;;;;;;5097638;28;20055;-64
2023/05/07 07:35:41;;;;;;;27.52;21.08;;;15.80;99.90;;;;;;5115624;28;20063;-64
2023/05/07 07:38:07;;;;;;;26.67;21.75;;;15.70;99.90;;;;;;5097626;28;20066;-63
2023/05/07 07:40:36;;;;;;;26.00;21.73;;;15.60;99.90;;;;;;5096851;28;20062;-65
2023/05/07 07:43:03;;;;;;;25.08;20.00;;;15.50;99.90;;;;;;5114832;28;20067;-64
2023/05/07 07:45:29;;;;;;;24.92;20.27;;;15.60;99.90;;;;;;5097531;28;20052;-63
2023/05/07 07:47:55;;;;;;;27.85;22.20;;;15.50;99.90;;;;;;5115899;28;20321;-63
2023/05/07 07:50:21;;;;;;;25.33;21.65;;;15.60;99.90;;;;;;5115178;28;20047;-64
2023/05/07 07:52:48;;;;;;;26.00;20.95;;;15.60;99.90;;;;;;5114876;28;20047;-64
2023/05/07 07:55:20;;;;;;;26.17;20.40;;;15.60;99.90;;;;;;5115007;28;20047;-63
2023/05/07 07:57:47;;;;;;;26.92;19.58;;;15.60;99.90;;;;;;5114976;28;20112;-64
2023/05/07 08:00:13;;;;;;;27.48;20.85;;;15.70;99.90;;;;;;5115496;28;20700;-64
2023/05/07 08:02:40;;;;;;;27.75;22.38;;;15.90;99.90;;;;;;5114471;28;20413;-63
2023/05/07 08:05:06;;;;;;;24.85;20.40;;;16.10;99.90;;;;;;5114926;28;20051;-63
2023/05/07 08:07:33;;;;;;;26.67;21.60;;;16.20;99.90;;;;;;5115452;28;20047;-63
2023/05/07 08:09:59;;;;;;;25.67;20.73;;;16.20;99.90;;;;;;5097470;28;20432;-64
2023/05/07 08:12:25;;;;;;;26.83;21.67;;;16.10;99.90;;;;;;5097064;28;20071;-64
2023/05/07 08:14:51;;;;;;;25.75;20.67;;;16.20;99.90;;;;;;5097177;28;20425;-64
2023/05/07 08:17:18;;;;;;;27.55;21.02;;;16.30;99.90;;;;;;5097365;28;20463;-64
2023/05/07 08:19:44;;;;;;;25.77;20.77;;;16.30;99.90;;;;;;5114661;28;20348;-63
2023/05/07 08:22:10;;;;;;;25.42;20.13;;;16.40;99.90;;;;;;5114792;28;20073;-64
2023/05/07 08:24:37;;;;;;;24.40;20.23;;;16.60;99.90;;;;;;5115479;28;20059;-64
2023/05/07 08:27:03;;;;;;;27.15;21.40;;;16.60;99.90;;;;;;5114799;28;20479;-63
2023/05/07 08:29:29;;;;;;;25.02;20.52;;;16.70;99.90;;;;;;5114869;28;20047;-63
2023/05/07 08:31:55;;;;;;;27.02;22.00;;;16.90;99.90;;;;;;5115047;28;20128;-64
2023/05/07 08:34:22;;;;;;;27.88;20.67;;;17.10;99.90;;;;;;5114660;28;20051;-63
2023/05/07 08:36:48;;;;;;;28.65;21.88;;;17.10;99.90;;;;;;5114998;28;20100;-64
2023/05/07 08:39:18;;;;;;;27.25;20.98;;;17.20;99.90;;;;;;5114801;28;20058;-64
2023/05/07 08:41:47;;;;;;;26.55;22.60;;;17.00;99.90;;;;;;5114787;28;20357;-65
2023/05/07 08:44:14;;;;;;;26.98;20.77;;;17.00;99.90;;;;;;5114865;28;20047;-64
2023/05/07 08:46:42;;;;;;;25.80;20.40;;;17.10;99.90;;;;;;5114851;28;20047;-63
2023/05/07 08:49:08;;;;;;;26.73;21.00;;;17.40;99.90;;;;;;5114634;28;20104;-64
2023/05/07 08:51:35;;;;;;;25.60;20.30;;;17.50;99.90;;;;;;5113490;28;20051;-65
2023/05/07 08:54:02;;;;;;;26.23;21.10;;;17.80;99.90;;;;;;5114142;28;20055;-64
2023/05/07 08:56:28;;;;;;;28.30;22.65;;;17.90;99.90;;;;;;5114811;28;20363;-64
2023/05/07 08:58:58;;;;;;;26.60;22.00;;;18.10;99.90;;;;;;5114462;28;20047;-64
2023/05/07 09:01:25;;;;;;;28.92;23.48;;;18.40;99.90;;;;;;5114598;28;20047;-65
2023/05/07 09:03:52;;;;;;;25.02;20.33;;;18.20;99.90;;;;;;5096270;28;20055;-64
2023/05/07 09:06:19;;;;;;;24.00;21.00;;;18.30;99.90;;;;;;5114381;28;20047;-63
2023/05/07 09:08:53;;;;;;;28.55;21.77;;;18.40;99.90;;;;;;5114218;28;20343;-64
2023/05/07 09:11:22;;;;;;;26.38;21.60;;;18.70;99.90;;;;;;5114139;28;20047;-63
2023/05/07 09:13:53;;;;;;;27.58;22.05;;;18.80;99.90;;;;;;5113267;28;20043;-65
2023/05/07 09:16:21;;;;;;;26.10;20.65;;;18.60;99.90;;;;;;5096119;28;20062;-64
2023/05/07 09:18:51;;;;;;;26.55;20.80;;;18.70;99.90;;;;;;5113456;28;20055;-64
2023/05/07 09:21:19;;;;;;;27.88;21.42;;;18.60;99.90;;;;;;5095524;28;20043;-65
2023/05/07 09:23:45;;;;;;;26.65;21.52;;;18.60;99.90;;;;;;5078324;28;20104;-64
2023/05/07 09:26:11;;;;;;;25.95;20.65;;;18.50;99.90;;;;;;5095960;28;20051;-64
2023/05/07 09:28:40;;;;;;;25.58;20.65;;;18.40;99.90;;;;;;5113891;28;20035;-64
2023/05/07 09:31:08;;;;;;;28.00;21.45;;;18.30;99.90;;;;;;5114071;28;20043;-63
2023/05/07 09:33:35;;;;;;;25.10;20.60;;;18.40;99.90;;;;;;5113193;28;20452;-64
2023/05/07 09:36:05;;;;;;;24.13;20.40;;;18.30;99.90;;;;;;5113905;28;20120;-64
2023/05/07 09:38:33;;;;;;;26.50;20.17;;;18.40;99.90;;;;;;5113650;28;20058;-63
2023/05/07 09:41:08;;;;;;;26.00;21.77;;;18.40;99.90;;;;;;5095844;28;20270;-64
2023/05/07 09:43:35;;;;;;;27.20;23.17;;;18.70;99.90;;;;;;5095258;28;20057;-64
2023/05/07 09:46:12;;;;;;;25.98;22.45;;;19.00;99.90;;;;;;5095812;28;20047;-63
2023/05/07 09:48:40;;;;;;;25.88;21.30;;;19.10;99.90;;;;;;5094564;28;20490;-64
2023/05/07 09:51:15;;;;;;;24.52;20.35;;;19.00;99.90;;;;;;5113134;28;20138;-64
2023/05/07 09:53:43;;;;;;;24.58;20.70;;;19.10;99.90;;;;;;5112923;28;20044;-64
2023/05/07 09:56:10;;;;;;;28.95;21.50;;;19.30;99.90;;;;;;5095097;28;20067;-64
2023/05/07 09:58:40;;;;;;;27.33;22.25;;;19.30;99.90;;;;;;5112828;28;20040;-63
2023/05/07 10:01:07;;;;;;;26.45;21.02;;;19.50;99.90;;;;;;5113205;28;20478;-64
2023/05/07 10:03:35;;;;;;;23.80;20.23;;;19.50;99.90;;;;;;5094134;28;20047;-63
2023/05/07 10:06:03;;;;;;;27.15;20.98;;;19.60;99.90;;;;;;5112903;28;20051;-63
2023/05/07 10:08:31;;;;;;;27.42;20.73;;;19.90;99.90;;;;;;5095153;28;20040;-64
2023/05/07 10:10:59;;;;;;;25.75;22.50;;;20.10;99.90;;;;;;5095502;28;20109;-64
2023/05/07 10:13:25;;;;;;;25.67;23.05;;;20.10;99.90;;;;;;5093865;28;20386;-63
2023/05/07 10:15:52;;;;;;;25.75;21.27;;;20.10;99.90;;;;;;5094755;28;20470;-63
2023/05/07 10:18:23;;;;;;;24.75;19.70;;;20.10;99.90;;;;;;5094623;28;20058;-64
2023/05/07 10:20:51;;;;;;;28.40;22.58;;;20.10;99.90;;;;;;5094977;28;20052;-64
2023/05/07 10:23:23;;;;;;;25.70;21.17;;;20.10;99.90;;;;;;5094196;28;20047;-65
2023/05/07 10:25:49;;;;;;;26.58;21.13;;;20.20;99.90;;;;;;5095132;28;20044;-64
2023/05/07 10:28:18;;;;;;;23.98;19.52;;;20.20;99.90;;;;;;5094426;28;20043;-63
2023/05/07 10:31:19;;;;;;;23.52;19.42;;;20.20;99.90;;;;;;5094977;28;20052;-65
2023/05/07 10:33:48;;;;;;;25.35;20.42;;;20.40;99.90;;;;;;5094103;28;20101;-65
2023/05/07 10:36:14;;;;;;;24.38;19.85;;;20.30;99.90;;;;;;5094678;28;20055;-62
2023/05/07 10:38:41;;;;;;;26.50;19.58;;;20.20;99.90;;;;;;5094574;28;20044;-64
2023/05/07 10:41:07;;;;;;;26.40;21.00;;;20.30;99.90;;;;;;5112943;28;20071;-62
2023/05/07 10:43:40;;;;;;;24.90;20.55;;;20.30;99.90;;;;;;5112177;28;20133;-64
2023/05/07 10:46:20;;;;;;;27.95;22.98;;;20.50;99.90;;;;;;5094643;28;20532;-63
2023/05/07 10:49:06;;;;;;;25.50;22.13;;;20.40;99.90;;;;;;5094757;28;20420;-65
2023/05/07 10:51:33;;;;;;;23.92;19.92;;;20.30;99.90;;;;;;5094269;28;20039;-64
2023/05/07 10:54:11;;;;;;;24.55;19.65;;;20.40;99.90;;;;;;5094978;28;20367;-63
2023/05/07 10:56:38;;;;;;;22.00;17.88;;;20.60;99.90;;;;;;5094875;28;20055;-65
2023/05/07 10:59:20;;;;;;;22.85;18.63;;;20.80;99.90;;;;;;5094683;28;20051;-62
2023/05/07 11:02:06;;;;;;;23.83;19.95;;;21.10;99.90;;;;;;5094288;28;20109;-62
2023/05/07 11:04:34;;;;;;;22.00;19.30;;;21.20;99.90;;;;;;5094540;28;20043;-63
2023/05/07 11:07:08;;;;;;;22.27;18.17;;;21.30;99.90;;;;;;5094469;28;20050;-65
2023/05/07 11:09:52;;;;;;;23.50;18.50;;;21.40;99.90;;;;;;5094143;28;20077;-62
2023/05/07 11:12:37;;;;;;;23.73;20.00;;;21.50;99.90;;;;;;5094062;28;20055;-63
2023/05/07 11:15:08;;;;;;;21.05;16.20;;;21.50;99.90;;;;;;5113235;28;20556;-62
2023/05/07 11:17:59;;;;;;;21.75;16.65;;;21.40;99.90;;;;;;5097904;28;20051;-63
2023/05/07 11:20:56;;;;;;;23.35;20.05;;;21.50;99.90;;;;;;5096397;28;20240;-63
2023/05/07 11:23:35;;;;;;;24.50;20.15;;;21.30;99.90;;;;;;5077756;28;20058;-62
2023/05/07 11:26:07;;;;;;;22.40;19.08;;;21.30;99.90;;;;;;5096056;28;20052;-63
2023/05/07 11:28:38;;;;;;;20.92;18.13;;;21.00;99.90;;;;;;5103332;28;20040;-62
2023/05/07 11:31:04;;;;;;;;;;;21.00;99.90;;;;;;5099290;28;20059;-63
2023/05/07 11:33:31;;;;;;;21.35;18.80;;;21.20;99.90;;;;;;5115883;28;20285;-64
2023/05/07 11:35:59;;;;;;;20.92;16.70;;;21.10;99.90;;;;;;5098128;28;20155;-63
2023/05/07 11:38:25;;;;;;;25.50;19.30;;;21.10;99.90;;;;;;5116057;28;20059;-63
2023/05/07 11:40:53;;;;;;;21.38;18.45;;;21.10;99.90;;;;;;5116098;28;20051;-63
2023/05/07 11:43:20;;;;;;;22.30;18.02;;;21.40;99.90;;;;;;5097595;28;20550;-62
2023/05/07 11:45:46;;;;;;;22.30;17.88;;;21.50;99.90;;;;;;5081320;28;20117;-62
2023/05/07 11:48:14;;;;;;;21.08;18.10;;;21.70;99.90;;;;;;5097341;28;20343;-63
2023/05/07 11:50:53;;;;;;;25.45;20.60;;;21.70;99.90;;;;;;5115782;28;20044;-64
2023/05/07 11:53:20;;;;;;;22.92;19.27;;;21.50;99.90;;;;;;5115582;28;20468;-64
2023/05/07 11:55:46;;;;;;;23.15;18.58;;;21.40;99.90;;;;;;5115900;28;20070;-63
2023/05/07 11:58:21;;;;;;;21.92;17.85;;;21.40;99.90;;;;;;5115579;28;20043;-62
2023/05/07 12:00:51;;;;;;;22.95;19.15;;;21.40;99.90;;;;;;5098040;28;20048;-62
2023/05/07 12:03:18;;;;;;;21.95;17.63;;;21.40;99.90;;;;;;5115397;28;20044;-63
2023/05/07 12:05:45;;;;;;;20.58;18.13;;;21.30;99.90;;;;;;5115850;28;20493;-62
2023/05/07 12:08:15;;;;;;;23.75;20.13;;;21.40;99.90;;;;;;5115489;28;20043;-63
2023/05/07 12:10:47;;;;;;;21.95;18.50;;;21.40;99.90;;;;;;5097727;28;20052;-63
2023/05/07 12:13:18;;;;;;;21.85;18.80;;;21.40;99.90;;;;;;5080176;28;20058;-62
2023/05/07 12:15:44;;;;;;;23.23;18.38;;;21.40;99.90;;;;;;5115554;28;20549;-62
2023/05/07 12:18:11;;;;;;;21.50;18.35;;;21.50;99.90;;;;;;5097696;28;20062;-63
2023/05/07 12:20:38;;;;;;;22.33;18.08;;;21.40;99.90;;;;;;5115089;28;20508;-62
2023/05/07 12:23:05;;;;;;;20.60;18.38;;;21.30;99.90;;;;;;5096941;28;20043;-62
2023/05/07 12:25:34;;;;;;;21.48;18.42;;;21.30;99.90;;;;;;5115140;28;20104;-63
2023/05/07 12:28:07;;;;;;;21.23;17.33;;;21.10;99.90;;;;;;5114246;28;20048;-63
2023/05/07 12:30:40;;;;;;;19.73;17.58;;;21.10;99.90;;;;;;5115483;28;20053;-63